sensor_id;sensor_type;location;lat;lon;timestamp;temperature;humidity
37594;DHT22;23441;50.856;6.076;2023-06-10T00:00:34;18.90;97.20
37594;DHT22;23441;50.856;6.076;2023-06-10T00:02:59;18.80;97.40
37594;DHT22;23441;50.856;6.076;2023-06-10T00:05:25;18.80;97.50
37594;DHT22;23441;50.856;6.076;2023-06-10T00:07:55;18.70;97.60
37594;DHT22;23441;50.856;6.076;2023-06-10T00:10:21;18.70;98.00
37594;DHT22;23441;50.856;6.076;2023-06-10T00:12:47;18.60;98.20
37594;DHT22;23441;50.856;6.076;2023-06-10T00:15:13;18.60;98.30
37594;DHT22;23441;50.856;6.076;2023-06-10T00:17:39;18.50;98.50
37594;DHT22;23441;50.856;6.076;2023-06-10T00:20:07;18.50;98.70
37594;DHT22;23441;50.856;6.076;2023-06-10T00:22:34;18.50;98.80
37594;DHT22;23441;50.856;6.076;2023-06-10T00:25:00;18.40;99.30
37594;DHT22;23441;50.856;6.076;2023-06-10T00:27:26;18.40;99.10
37594;DHT22;23441;50.856;6.076;2023-06-10T00:29:56;18.40;99.20
37594;DHT22;23441;50.856;6.076;2023-06-10T00:32:22;18.30;99.30
37594;DHT22;23441;50.856;6.076;2023-06-10T00:34:48;18.30;99.80
37594;DHT22;23441;50.856;6.076;2023-06-10T00:37:13;18.20;99.70
37594;DHT22;23441;50.856;6.076;2023-06-10T00:39:39;18.20;99.80
37594;DHT22;23441;50.856;6.076;2023-06-10T00:42:05;18.10;99.90
37594;DHT22;23441;50.856;6.076;2023-06-10T00:44:32;18.10;99.90
37594;DHT22;23441;50.856;6.076;2023-06-10T00:46:58;18.00;99.90
37594;DHT22;23441;50.856;6.076;2023-06-10T00:49:24;17.90;99.90
37594;DHT22;23441;50.856;6.076;2023-06-10T00:51:51;17.90;99.90
37594;DHT22;23441;50.856;6.076;2023-06-10T00:54:18;17.90;99.90
37594;DHT22;23441;50.856;6.076;2023-06-10T00:56:43;17.90;99.90
37594;DHT22;23441;50.856;6.076;2023-06-10T00:59:09;17.80;99.90
37594;DHT22;23441;50.856;6.076;2023-06-10T01:01:35;17.70;99.90
37594;DHT22;23441;50.856;6.076;2023-06-10T01:04:03;17.60;99.90
37594;DHT22;23441;50.856;6.076;2023-06-10T01:06:36;17.50;99.90
37594;DHT22;23441;50.856;6.076;2023-06-10T01:09:07;17.50;99.90
37594;DHT22;23441;50.856;6.076;2023-06-10T01:11:43;17.50;99.90
37594;DHT22;23441;50.856;6.076;2023-06-10T01:14:12;17.50;99.90
37594;DHT22;23441;50.856;6.076;2023-06-10T01:16:40;17.40;99.90
37594;DHT22;23441;50.856;6.076;2023-06-10T01:19:06;17.30;99.90
37594;DHT22;23441;50.856;6.076;2023-06-10T01:21:33;17.20;99.90
37594;DHT22;23441;50.856;6.076;2023-06-10T01:23:58;17.20;99.90
37594;DHT22;23441;50.856;6.076;2023-06-10T01:26:30;17.20;99.90
37594;DHT22;23441;50.856;6.076;2023-06-10T01:29:03;17.20;99.90
37594;DHT22;23441;50.856;6.076;2023-06-10T01:32:01;17.20;99.90
37594;DHT22;23441;50.856;6.076;2023-06-10T01:34:31;17.20;99.90
37594;DHT22;23441;50.856;6.076;2023-06-10T01:36:58;17.10;99.90
37594;DHT22;23441;50.856;6.076;2023-06-10T01:39:24;17.20;99.90
37594;DHT22;23441;50.856;6.076;2023-06-10T01:41:52;17.20;99.90
37594;DHT22;23441;50.856;6.076;2023-06-10T01:44:22;17.10;99.90
37594;DHT22;23441;50.856;6.076;2023-06-10T01:46:48;17.00;99.90
37594;DHT22;23441;50.856;6.076;2023-06-10T01:49:14;17.00;99.90
37594;DHT22;23441;50.856;6.076;2023-06-10T01:51:40;16.90;99.90
37594;DHT22;23441;50.856;6.076;2023-06-10T01:54:06;16.80;99.90
37594;DHT22;23441;50.856;6.076;2023-06-10T01:56:32;16.80;99.90
37594;DHT22;23441;50.856;6.076;2023-06-10T01:58:58;16.70;99.90
37594;DHT22;23441;50.856;6.076;2023-06-10T02:01:25;16.60;99.90
37594;DHT22;23441;50.856;6.076;2023-06-10T02:03:51;16.60;99.90
37594;DHT22;23441;50.856;6.076;2023-06-10T02:06:17;16.60;99.90
37594;DHT22;23441;50.856;6.076;2023-06-10T02:08:42;16.50;99.90
37594;DHT22;23441;50.856;6.076;2023-06-10T02:11:08;16.60;99.90
37594;DHT22;23441;50.856;6.076;2023-06-10T02:13:34;16.60;99.90
37594;DHT22;23441;50.856;6.076;2023-06-10T02:16:00;16.60;99.90
37594;DHT22;23441;50.856;6.076;2023-06-10T02:18:26;16.60;99.90
37594;DHT22;23441;50.856;6.076;2023-06-10T02:20:53;16.50;99.90
37594;DHT22;23441;50.856;6.076;2023-06-10T02:23:19;16.50;99.90
37594;DHT22;23441;50.856;6.076;2023-06-10T02:25:45;16.50;99.90
37594;DHT22;23441;50.856;6.076;2023-06-10T02:28:10;16.50;99.90
37594;DHT22;23441;50.856;6.076;2023-06-10T02:30:41;16.40;99.90
37594;DHT22;23441;50.856;6.076;2023-06-10T02:33:07;16.40;99.90
37594;DHT22;23441;50.856;6.076;2023-06-10T02:35:40;16.40;99.90
37594;DHT22;23441;50.856;6.076;2023-06-10T02:38:06;16.30;99.90
37594;DHT22;23441;50.856;6.076;2023-06-10T02:40:32;16.30;99.90
37594;DHT22;23441;50.856;6.076;2023-06-10T02:42:57;16.20;99.90
37594;DHT22;23441;50.856;6.076;2023-06-10T02:45:24;16.20;99.90
37594;DHT22;23441;50.856;6.076;2023-06-10T02:47:50;16.20;99.90
37594;DHT22;23441;50.856;6.076;2023-06-10T02:50:15;16.10;99.90
37594;DHT22;23441;50.856;6.076;2023-06-10T02:52:41;16.10;99.90
37594;DHT22;23441;50.856;6.076;2023-06-10T02:55:07;16.00;99.90
37594;DHT22;23441;50.856;6.076;2023-06-10T02:57:33;16.00;99.90
37594;DHT22;23441;50.856;6.076;2023-06-10T02:59:58;16.00;99.90
37594;DHT22;23441;50.856;6.076;2023-06-10T03:02:25;16.00;99.90
37594;DHT22;23441;50.856;6.076;2023-06-10T03:04:57;15.90;99.90
37594;DHT22;23441;50.856;6.076;2023-06-10T03:07:22;15.90;99.90
37594;DHT22;23441;50.856;6.076;2023-06-10T03:09:49;15.90;99.90
37594;DHT22;23441;50.856;6.076;2023-06-10T03:12:15;15.90;99.90
37594;DHT22;23441;50.856;6.076;2023-06-10T03:14:41;15.90;99.90
37594;DHT22;23441;50.856;6.076;2023-06-10T03:17:07;15.90;99.90
37594;DHT22;23441;50.856;6.076;2023-06-10T03:19:34;15.80;99.90
37594;DHT22;23441;50.856;6.076;2023-06-10T03:22:14;15.90;99.90
37594;DHT22;23441;50.856;6.076;2023-06-10T03:24:40;15.80;99.90
37594;DHT22;23441;50.856;6.076;2023-06-10T03:27:07;15.70;99.90
37594;DHT22;23441;50.856;6.076;2023-06-10T03:29:33;15.70;99.90
37594;DHT22;23441;50.856;6.076;2023-06-10T03:32:00;15.60;99.90
37594;DHT22;23441;50.856;6.076;2023-06-10T03:34:25;15.60;99.90
37594;DHT22;23441;50.856;6.076;2023-06-10T03:36:51;15.60;99.90
37594;DHT22;23441;50.856;6.076;2023-06-10T03:39:16;15.60;99.90
37594;DHT22;23441;50.856;6.076;2023-06-10T03:41:42;15.60;99.90
37594;DHT22;23441;50.856;6.076;2023-06-10T03:44:08;15.60;99.90
37594;DHT22;23441;50.856;6.076;2023-06-10T03:46:33;15.60;99.90
37594;DHT22;23441;50.856;6.076;2023-06-10T03:48:59;15.60;99.90
37594;DHT22;23441;50.856;6.076;2023-06-10T03:51:28;15.60;99.90
37594;DHT22;23441;50.856;6.076;2023-06-10T03:53:54;15.70;99.90
37594;DHT22;23441;50.856;6.076;2023-06-10T03:56:20;15.70;99.90
37594;DHT22;23441;50.856;6.076;2023-06-10T03:58:45;15.70;99.90
37594;DHT22;23441;50.856;6.076;2023-06-10T04:01:11;15.70;99.90
37594;DHT22;23441;50.856;6.076;2023-06-10T04:03:38;15.80;99.90
37594;DHT22;23441;50.856;6.076;2023-06-10T04:06:05;15.70;99.90
37594;DHT22;23441;50.856;6.076;2023-06-10T04:08:30;15.80;99.90
37594;DHT22;23441;50.856;6.076;2023-06-10T04:10:58;15.80;99.90
37594;DHT22;23441;50.856;6.076;2023-06-10T04:13:24;15.80;99.90
37594;DHT22;23441;50.856;6.076;2023-06-10T04:15:49;15.80;99.90
37594;DHT22;23441;50.856;6.076;2023-06-10T04:18:15;15.90;99.90
37594;DHT22;23441;50.856;6.076;2023-06-10T04:20:41;16.00;99.90
37594;DHT22;23441;50.856;6.076;2023-06-10T04:23:07;16.00;99.90
37594;DHT22;23441;50.856;6.076;2023-06-10T04:25:33;16.10;99.90
37594;DHT22;23441;50.856;6.076;2023-06-10T04:27:58;16.10;99.90
37594;DHT22;23441;50.856;6.076;2023-06-10T04:30:24;16.10;99.90
37594;DHT22;23441;50.856;6.076;2023-06-10T04:32:50;16.20;99.90
37594;DHT22;23441;50.856;6.076;2023-06-10T04:35:15;16.20;99.90
37594;DHT22;23441;50.856;6.076;2023-06-10T04:37:41;16.30;99.90
37594;DHT22;23441;50.856;6.076;2023-06-10T04:40:08;16.40;99.90
37594;DHT22;23441;50.856;6.076;2023-06-10T04:42:34;16.40;99.90
37594;DHT22;23441;50.856;6.076;2023-06-10T04:45:00;16.50;99.90
37594;DHT22;23441;50.856;6.076;2023-06-10T04:47:26;16.60;99.90
37594;DHT22;23441;50.856;6.076;2023-06-10T04:49:52;16.70;99.90
37594;DHT22;23441;50.856;6.076;2023-06-10T04:52:19;16.80;99.90
37594;DHT22;23441;50.856;6.076;2023-06-10T04:54:45;16.80;99.90
37594;DHT22;23441;50.856;6.076;2023-06-10T04:57:10;17.00;99.90
37594;DHT22;23441;50.856;6.076;2023-06-10T04:59:37;17.00;99.90
37594;DHT22;23441;50.856;6.076;2023-06-10T05:02:06;17.10;99.90
37594;DHT22;23441;50.856;6.076;2023-06-10T05:04:32;17.20;99.90
37594;DHT22;23441;50.856;6.076;2023-06-10T05:06:57;17.30;99.90
37594;DHT22;23441;50.856;6.076;2023-06-10T05:09:23;17.40;99.90
37594;DHT22;23441;50.856;6.076;2023-06-10T05:11:49;17.50;99.90
37594;DHT22;23441;50.856;6.076;2023-06-10T05:14:14;17.60;99.90
37594;DHT22;23441;50.856;6.076;2023-06-10T05:16:43;17.60;99.90
37594;DHT22;23441;50.856;6.076;2023-06-10T05:19:08;17.80;99.90
37594;DHT22;23441;50.856;6.076;2023-06-10T05:21:34;18.40;99.90
37594;DHT22;23441;50.856;6.076;2023-06-10T05:24:00;19.40;99.90
37594;DHT22;23441;50.856;6.076;2023-06-10T05:26:25;20.60;99.90
37594;DHT22;23441;50.856;6.076;2023-06-10T05:28:51;21.60;99.90
37594;DHT22;23441;50.856;6.076;2023-06-10T05:31:17;22.20;99.90
37594;DHT22;23441;50.856;6.076;2023-06-10T05:33:43;23.10;99.90
37594;DHT22;23441;50.856;6.076;2023-06-10T05:36:09;23.80;99.90
37594;DHT22;23441;50.856;6.076;2023-06-10T05:38:34;24.40;98.20
37594;DHT22;23441;50.856;6.076;2023-06-10T05:41:00;24.30;96.90
37594;DHT22;23441;50.856;6.076;2023-06-10T05:43:26;23.80;97.00
37594;DHT22;23441;50.856;6.076;2023-06-10T05:45:52;23.70;97.20
37594;DHT22;23441;50.856;6.076;2023-06-10T05:48:17;23.50;97.80
37594;DHT22;23441;50.856;6.076;2023-06-10T05:50:45;23.70;97.60
37594;DHT22;23441;50.856;6.076;2023-06-10T05:53:16;24.00;96.90
37594;DHT22;23441;50.856;6.076;2023-06-10T05:55:43;24.50;97.30
37594;DHT22;23441;50.856;6.076;2023-06-10T05:58:09;25.20;96.70
37594;DHT22;23441;50.856;6.076;2023-06-10T06:00:35;25.60;95.90
37594;DHT22;23441;50.856;6.076;2023-06-10T06:03:00;26.10;95.40
37594;DHT22;23441;50.856;6.076;2023-06-10T06:05:26;26.60;94.50
37594;DHT22;23441;50.856;6.076;2023-06-10T06:07:52;27.00;94.70
37594;DHT22;23441;50.856;6.076;2023-06-10T06:10:18;27.10;93.30
37594;DHT22;23441;50.856;6.076;2023-06-10T06:12:44;27.40;92.50
37594;DHT22;23441;50.856;6.076;2023-06-10T06:15:10;27.90;92.70
37594;DHT22;23441;50.856;6.076;2023-06-10T06:17:36;28.30;92.10
37594;DHT22;23441;50.856;6.076;2023-06-10T06:20:03;28.80;91.70
37594;DHT22;23441;50.856;6.076;2023-06-10T06:22:29;29.20;91.20
37594;DHT22;23441;50.856;6.076;2023-06-10T06:24:54;29.30;90.40
37594;DHT22;23441;50.856;6.076;2023-06-10T06:27:20;29.60;90.50
37594;DHT22;23441;50.856;6.076;2023-06-10T06:29:46;29.60;90.10
37594;DHT22;23441;50.856;6.076;2023-06-10T06:32:12;30.00;90.40
37594;DHT22;23441;50.856;6.076;2023-06-10T06:34:38;30.20;90.00
37594;DHT22;23441;50.856;6.076;2023-06-10T06:37:03;30.40;88.00
37594;DHT22;23441;50.856;6.076;2023-06-10T06:39:29;30.70;87.60
37594;DHT22;23441;50.856;6.076;2023-06-10T06:41:55;31.10;87.90
37594;DHT22;23441;50.856;6.076;2023-06-10T06:44:20;30.80;88.00
37594;DHT22;23441;50.856;6.076;2023-06-10T06:46:46;30.70;85.40
37594;DHT22;23441;50.856;6.076;2023-06-10T06:49:11;30.60;83.10
37594;DHT22;23441;50.856;6.076;2023-06-10T06:51:37;31.40;84.50
37594;DHT22;23441;50.856;6.076;2023-06-10T06:54:03;31.70;83.40
37594;DHT22;23441;50.856;6.076;2023-06-10T06:56:31;32.20;81.10
37594;DHT22;23441;50.856;6.076;2023-06-10T06:58:57;32.40;81.00
37594;DHT22;23441;50.856;6.076;2023-06-10T07:01:22;32.60;79.70
37594;DHT22;23441;50.856;6.076;2023-06-10T07:03:48;32.60;78.80
37594;DHT22;23441;50.856;6.076;2023-06-10T07:06:14;32.70;80.20
37594;DHT22;23441;50.856;6.076;2023-06-10T07:08:39;33.10;79.40
37594;DHT22;23441;50.856;6.076;2023-06-10T07:11:05;32.90;78.10
37594;DHT22;23441;50.856;6.076;2023-06-10T07:13:31;32.80;75.00
37594;DHT22;23441;50.856;6.076;2023-06-10T07:15:56;32.90;73.90
37594;DHT22;23441;50.856;6.076;2023-06-10T07:18:22;32.70;75.70
37594;DHT22;23441;50.856;6.076;2023-06-10T07:20:47;32.90;73.90
37594;DHT22;23441;50.856;6.076;2023-06-10T07:23:13;32.90;76.00
37594;DHT22;23441;50.856;6.076;2023-06-10T07:25:41;32.60;73.00
37594;DHT22;23441;50.856;6.076;2023-06-10T07:28:07;33.10;75.60
37594;DHT22;23441;50.856;6.076;2023-06-10T07:30:32;33.40;74.70
37594;DHT22;23441;50.856;6.076;2023-06-10T07:32:58;33.60;75.00
37594;DHT22;23441;50.856;6.076;2023-06-10T07:35:24;33.40;74.50
37594;DHT22;23441;50.856;6.076;2023-06-10T07:37:49;33.90;72.40
37594;DHT22;23441;50.856;6.076;2023-06-10T07:40:15;33.50;71.70
37594;DHT22;23441;50.856;6.076;2023-06-10T07:42:41;33.20;72.80
37594;DHT22;23441;50.856;6.076;2023-06-10T07:45:07;32.70;71.70
37594;DHT22;23441;50.856;6.076;2023-06-10T07:47:34;32.60;73.30
37594;DHT22;23441;50.856;6.076;2023-06-10T07:50:00;32.30;73.50
37594;DHT22;23441;50.856;6.076;2023-06-10T07:52:25;32.30;73.40
37594;DHT22;23441;50.856;6.076;2023-06-10T07:54:51;33.30;72.60
37594;DHT22;23441;50.856;6.076;2023-06-10T07:57:17;33.00;73.90
37594;DHT22;23441;50.856;6.076;2023-06-10T07:59:43;33.40;72.60
37594;DHT22;23441;50.856;6.076;2023-06-10T08:02:09;33.90;74.10
37594;DHT22;23441;50.856;6.076;2023-06-10T08:04:35;33.70;73.70
37594;DHT22;23441;50.856;6.076;2023-06-10T08:07:01;34.00;73.60
37594;DHT22;23441;50.856;6.076;2023-06-10T08:09:27;34.20;72.80
37594;DHT22;23441;50.856;6.076;2023-06-10T08:11:53;33.90;72.90
37594;DHT22;23441;50.856;6.076;2023-06-10T08:14:19;33.70;71.50
37594;DHT22;23441;50.856;6.076;2023-06-10T08:16:45;34.30;73.30
37594;DHT22;23441;50.856;6.076;2023-06-10T08:19:11;34.00;72.50
37594;DHT22;23441;50.856;6.076;2023-06-10T08:21:37;33.60;72.60
37594;DHT22;23441;50.856;6.076;2023-06-10T08:24:08;33.50;72.80
37594;DHT22;23441;50.856;6.076;2023-06-10T08:26:34;33.60;73.00
37594;DHT22;23441;50.856;6.076;2023-06-10T08:29:00;33.70;71.70
37594;DHT22;23441;50.856;6.076;2023-06-10T08:31:26;33.90;74.60
37594;DHT22;23441;50.856;6.076;2023-06-10T08:33:51;33.70;73.40
37594;DHT22;23441;50.856;6.076;2023-06-10T08:36:17;34.00;72.10
37594;DHT22;23441;50.856;6.076;2023-06-10T08:38:43;33.70;71.70
37594;DHT22;23441;50.856;6.076;2023-06-10T08:41:09;34.10;73.10
37594;DHT22;23441;50.856;6.076;2023-06-10T08:43:59;34.30;71.70
37594;DHT22;23441;50.856;6.076;2023-06-10T08:46:31;34.70;72.20
37594;DHT22;23441;50.856;6.076;2023-06-10T08:49:02;34.70;70.60
37594;DHT22;23441;50.856;6.076;2023-06-10T08:51:30;35.10;69.60
37594;DHT22;23441;50.856;6.076;2023-06-10T08:54:09;35.30;70.50
37594;DHT22;23441;50.856;6.076;2023-06-10T08:56:39;35.70;71.50
37594;DHT22;23441;50.856;6.076;2023-06-10T08:59:05;35.60;68.30
37594;DHT22;23441;50.856;6.076;2023-06-10T09:01:31;36.00;68.50
37594;DHT22;23441;50.856;6.076;2023-06-10T09:03:59;35.70;69.70
37594;DHT22;23441;50.856;6.076;2023-06-10T09:06:25;35.70;70.80
37594;DHT22;23441;50.856;6.076;2023-06-10T09:08:50;35.00;68.10
37594;DHT22;23441;50.856;6.076;2023-06-10T09:11:17;35.10;69.40
37594;DHT22;23441;50.856;6.076;2023-06-10T09:13:42;34.90;68.50
37594;DHT22;23441;50.856;6.076;2023-06-10T09:16:08;34.90;67.30
37594;DHT22;23441;50.856;6.076;2023-06-10T09:18:35;35.60;67.90
37594;DHT22;23441;50.856;6.076;2023-06-10T09:21:00;35.00;68.50
37594;DHT22;23441;50.856;6.076;2023-06-10T09:23:26;35.60;68.90
37594;DHT22;23441;50.856;6.076;2023-06-10T09:25:57;35.80;69.80
37594;DHT22;23441;50.856;6.076;2023-06-10T09:28:23;36.10;66.90
37594;DHT22;23441;50.856;6.076;2023-06-10T09:30:49;35.90;66.40
37594;DHT22;23441;50.856;6.076;2023-06-10T09:33:16;35.50;68.20
37594;DHT22;23441;50.856;6.076;2023-06-10T09:35:46;35.60;66.50
37594;DHT22;23441;50.856;6.076;2023-06-10T09:38:14;35.30;65.70
37594;DHT22;23441;50.856;6.076;2023-06-10T09:40:54;34.90;67.00
37594;DHT22;23441;50.856;6.076;2023-06-10T09:43:20;34.20;65.90
37594;DHT22;23441;50.856;6.076;2023-06-10T09:45:50;34.00;66.70
37594;DHT22;23441;50.856;6.076;2023-06-10T09:48:18;33.80;68.60
37594;DHT22;23441;50.856;6.076;2023-06-10T09:57:32;33.10;67.30
37594;DHT22;23441;50.856;6.076;2023-06-10T10:00:06;32.90;68.90
37594;DHT22;23441;50.856;6.076;2023-06-10T10:02:44;33.20;67.50
37594;DHT22;23441;50.856;6.076;2023-06-10T10:05:13;33.40;69.10
37594;DHT22;23441;50.856;6.076;2023-06-10T10:07:39;33.20;69.40
37594;DHT22;23441;50.856;6.076;2023-06-10T10:10:05;33.60;71.00
37594;DHT22;23441;50.856;6.076;2023-06-10T10:12:32;33.80;69.50
37594;DHT22;23441;50.856;6.076;2023-06-10T10:14:57;33.50;68.80
37594;DHT22;23441;50.856;6.076;2023-06-10T10:17:24;32.70;67.50
37594;DHT22;23441;50.856;6.076;2023-06-10T10:19:54;32.20;69.50
37594;DHT22;23441;50.856;6.076;2023-06-10T10:22:32;32.70;70.50
37594;DHT22;23441;50.856;6.076;2023-06-10T10:25:02;32.60;67.70
37594;DHT22;23441;50.856;6.076;2023-06-10T10:27:42;32.60;69.00
37594;DHT22;23441;50.856;6.076;2023-06-10T10:30:10;32.70;69.50
37594;DHT22;23441;50.856;6.076;2023-06-10T10:32:58;32.50;68.60
37594;DHT22;23441;50.856;6.076;2023-06-10T10:35:30;33.20;69.90
37594;DHT22;23441;50.856;6.076;2023-06-10T10:37:56;32.80;67.60
37594;DHT22;23441;50.856;6.076;2023-06-10T10:40:22;32.80;69.00
37594;DHT22;23441;50.856;6.076;2023-06-10T10:42:49;33.00;69.40
37594;DHT22;23441;50.856;6.076;2023-06-10T10:45:14;33.10;68.50
37594;DHT22;23441;50.856;6.076;2023-06-10T10:47:42;33.20;69.70
37594;DHT22;23441;50.856;6.076;2023-06-10T10:50:16;32.70;68.40
37594;DHT22;23441;50.856;6.076;2023-06-10T10:52:55;32.30;70.30
37594;DHT22;23441;50.856;6.076;2023-06-10T10:55:22;32.50;68.90
37594;DHT22;23441;50.856;6.076;2023-06-10T10:58:14;32.60;68.40
37594;DHT22;23441;50.856;6.076;2023-06-10T11:00:44;33.00;70.70
37594;DHT22;23441;50.856;6.076;2023-06-10T11:03:15;32.90;67.50
37594;DHT22;23441;50.856;6.076;2023-06-10T11:05:47;32.90;68.80
37594;DHT22;23441;50.856;6.076;2023-06-10T11:11:23;32.50;68.30
37594;DHT22;23441;50.856;6.076;2023-06-10T11:16:28;32.30;68.40
37594;DHT22;23441;50.856;6.076;2023-06-10T11:18:55;32.00;69.60
37594;DHT22;23441;50.856;6.076;2023-06-10T11:21:23;31.90;69.10
37594;DHT22;23441;50.856;6.076;2023-06-10T11:23:50;31.80;71.00
37594;DHT22;23441;50.856;6.076;2023-06-10T11:31:39;32.00;69.70
37594;DHT22;23441;50.856;6.076;2023-06-10T11:34:06;31.90;68.70
37594;DHT22;23441;50.856;6.076;2023-06-10T11:36:40;31.80;67.20
37594;DHT22;23441;50.856;6.076;2023-06-10T11:39:08;31.90;70.00
37594;DHT22;23441;50.856;6.076;2023-06-10T11:41:35;32.10;70.90
37594;DHT22;23441;50.856;6.076;2023-06-10T11:44:03;32.30;69.40
37594;DHT22;23441;50.856;6.076;2023-06-10T11:46:29;32.40;67.10
37594;DHT22;23441;50.856;6.076;2023-06-10T11:48:59;32.10;69.00
37594;DHT22;23441;50.856;6.076;2023-06-10T11:51:26;32.40;70.10
37594;DHT22;23441;50.856;6.076;2023-06-10T11:53:53;32.70;70.00
37594;DHT22;23441;50.856;6.076;2023-06-10T11:56:25;32.30;66.20
37594;DHT22;23441;50.856;6.076;2023-06-10T11:59:04;32.10;66.90
37594;DHT22;23441;50.856;6.076;2023-06-10T12:01:34;32.30;69.70
37594;DHT22;23441;50.856;6.076;2023-06-10T12:04:05;32.20;66.90
37594;DHT22;23441;50.856;6.076;2023-06-10T12:09:27;32.70;66.20
37594;DHT22;23441;50.856;6.076;2023-06-10T12:12:04;32.90;64.90
37594;DHT22;23441;50.856;6.076;2023-06-10T12:14:59;32.80;66.10
37594;DHT22;23441;50.856;6.076;2023-06-10T12:20:00;33.10;65.40
37594;DHT22;23441;50.856;6.076;2023-06-10T12:22:26;32.80;64.60
37594;DHT22;23441;50.856;6.076;2023-06-10T12:24:59;33.20;64.70
37594;DHT22;23441;50.856;6.076;2023-06-10T12:27:26;33.30;67.80
37594;DHT22;23441;50.856;6.076;2023-06-10T12:29:55;33.00;65.00
37594;DHT22;23441;50.856;6.076;2023-06-10T12:32:22;33.00;64.70
37594;DHT22;23441;50.856;6.076;2023-06-10T12:35:04;33.10;65.50
37594;DHT22;23441;50.856;6.076;2023-06-10T12:37:30;33.10;62.10
37594;DHT22;23441;50.856;6.076;2023-06-10T12:40:00;33.20;65.70
37594;DHT22;23441;50.856;6.076;2023-06-10T12:42:27;33.00;64.90
37594;DHT22;23441;50.856;6.076;2023-06-10T12:44:54;33.30;63.80
37594;DHT22;23441;50.856;6.076;2023-06-10T12:47:20;33.50;66.20
37594;DHT22;23441;50.856;6.076;2023-06-10T12:49:54;33.80;65.90
37594;DHT22;23441;50.856;6.076;2023-06-10T12:52:19;33.70;65.20
37594;DHT22;23441;50.856;6.076;2023-06-10T12:54:45;33.50;62.40
37594;DHT22;23441;50.856;6.076;2023-06-10T12:57:11;33.10;62.70
37594;DHT22;23441;50.856;6.076;2023-06-10T12:59:37;33.20;65.40
37594;DHT22;23441;50.856;6.076;2023-06-10T13:02:02;33.50;67.20
37594;DHT22;23441;50.856;6.076;2023-06-10T13:04:28;33.50;62.30
37594;DHT22;23441;50.856;6.076;2023-06-10T13:06:53;33.50;62.70
37594;DHT22;23441;50.856;6.076;2023-06-10T13:09:19;33.90;66.10
37594;DHT22;23441;50.856;6.076;2023-06-10T13:11:45;33.90;62.30
37594;DHT22;23441;50.856;6.076;2023-06-10T13:14:11;32.30;62.60
37594;DHT22;23441;50.856;6.076;2023-06-10T13:16:36;32.10;66.00
37594;DHT22;23441;50.856;6.076;2023-06-10T13:19:04;32.40;66.00
37594;DHT22;23441;50.856;6.076;2023-06-10T13:21:31;32.80;63.00
37594;DHT22;23441;50.856;6.076;2023-06-10T13:23:57;33.00;66.50
37594;DHT22;23441;50.856;6.076;2023-06-10T13:26:23;33.30;64.10
37594;DHT22;23441;50.856;6.076;2023-06-10T13:28:48;33.40;64.20
37594;DHT22;23441;50.856;6.076;2023-06-10T13:31:14;33.30;64.90
37594;DHT22;23441;50.856;6.076;2023-06-10T13:33:40;33.60;65.40
37594;DHT22;23441;50.856;6.076;2023-06-10T13:36:06;33.30;62.10
37594;DHT22;23441;50.856;6.076;2023-06-10T13:38:31;33.40;63.70
37594;DHT22;23441;50.856;6.076;2023-06-10T13:40:57;33.30;64.30
37594;DHT22;23441;50.856;6.076;2023-06-10T13:43:23;33.20;61.50
37594;DHT22;23441;50.856;6.076;2023-06-10T13:45:49;33.20;64.80
37594;DHT22;23441;50.856;6.076;2023-06-10T13:48:14;33.20;64.70
37594;DHT22;23441;50.856;6.076;2023-06-10T13:50:40;33.40;65.80
37594;DHT22;23441;50.856;6.076;2023-06-10T13:53:11;33.20;66.10
37594;DHT22;23441;50.856;6.076;2023-06-10T13:55:37;33.10;67.40
37594;DHT22;23441;50.856;6.076;2023-06-10T13:58:02;33.10;64.60
37594;DHT22;23441;50.856;6.076;2023-06-10T14:00:28;33.20;67.60
37594;DHT22;23441;50.856;6.076;2023-06-10T14:02:54;33.10;68.10
37594;DHT22;23441;50.856;6.076;2023-06-10T14:05:19;33.00;64.90
37594;DHT22;23441;50.856;6.076;2023-06-10T14:07:45;32.70;69.40
37594;DHT22;23441;50.856;6.076;2023-06-10T14:10:11;33.00;65.80
37594;DHT22;23441;50.856;6.076;2023-06-10T14:12:36;33.00;67.10
37594;DHT22;23441;50.856;6.076;2023-06-10T14:15:02;33.20;67.50
37594;DHT22;23441;50.856;6.076;2023-06-10T14:17:28;33.00;66.50
37594;DHT22;23441;50.856;6.076;2023-06-10T14:19:54;33.10;68.10
37594;DHT22;23441;50.856;6.076;2023-06-10T14:22:19;33.20;66.80
37594;DHT22;23441;50.856;6.076;2023-06-10T14:24:45;32.70;65.60
37594;DHT22;23441;50.856;6.076;2023-06-10T14:27:12;32.90;67.70
37594;DHT22;23441;50.856;6.076;2023-06-10T14:29:38;33.00;66.40
37594;DHT22;23441;50.856;6.076;2023-06-10T14:32:04;33.40;65.90
37594;DHT22;23441;50.856;6.076;2023-06-10T14:34:29;33.30;68.10
37594;DHT22;23441;50.856;6.076;2023-06-10T14:37:02;33.00;63.70
37594;DHT22;23441;50.856;6.076;2023-06-10T14:39:29;32.80;63.90
37594;DHT22;23441;50.856;6.076;2023-06-10T14:41:55;33.00;65.50
37594;DHT22;23441;50.856;6.076;2023-06-10T14:44:20;33.30;65.50
37594;DHT22;23441;50.856;6.076;2023-06-10T14:46:46;32.70;67.20
37594;DHT22;23441;50.856;6.076;2023-06-10T14:49:12;32.30;67.40
37594;DHT22;23441;50.856;6.076;2023-06-10T14:51:38;32.60;65.90
37594;DHT22;23441;50.856;6.076;2023-06-10T14:54:03;32.60;64.80
37594;DHT22;23441;50.856;6.076;2023-06-10T14:56:29;32.40;66.30
37594;DHT22;23441;50.856;6.076;2023-06-10T14:58:55;32.50;65.60
37594;DHT22;23441;50.856;6.076;2023-06-10T15:01:21;32.60;66.30
37594;DHT22;23441;50.856;6.076;2023-06-10T15:03:46;32.70;68.70
37594;DHT22;23441;50.856;6.076;2023-06-10T15:06:12;32.90;66.70
37594;DHT22;23441;50.856;6.076;2023-06-10T15:08:37;32.90;65.80
37594;DHT22;23441;50.856;6.076;2023-06-10T15:11:03;32.90;67.10
37594;DHT22;23441;50.856;6.076;2023-06-10T15:13:29;32.70;65.00
37594;DHT22;23441;50.856;6.076;2023-06-10T15:15:54;32.80;65.90
37594;DHT22;23441;50.856;6.076;2023-06-10T15:18:21;31.70;65.40
37594;DHT22;23441;50.856;6.076;2023-06-10T15:20:46;31.70;66.60
37594;DHT22;23441;50.856;6.076;2023-06-10T15:23:12;31.60;64.90
37594;DHT22;23441;50.856;6.076;2023-06-10T15:25:38;31.70;64.20
37594;DHT22;23441;50.856;6.076;2023-06-10T15:28:06;31.90;67.50
37594;DHT22;23441;50.856;6.076;2023-06-10T15:30:31;32.00;64.40
37594;DHT22;23441;50.856;6.076;2023-06-10T15:32:57;31.90;62.20
37594;DHT22;23441;50.856;6.076;2023-06-10T15:35:23;31.70;64.90
37594;DHT22;23441;50.856;6.076;2023-06-10T15:37:48;31.90;63.90
37594;DHT22;23441;50.856;6.076;2023-06-10T15:40:14;32.00;65.50
37594;DHT22;23441;50.856;6.076;2023-06-10T15:42:40;32.30;63.90
37594;DHT22;23441;50.856;6.076;2023-06-10T15:45:06;32.20;63.60
37594;DHT22;23441;50.856;6.076;2023-06-10T15:47:32;32.20;63.70
37594;DHT22;23441;50.856;6.076;2023-06-10T15:49:58;32.30;63.60
37594;DHT22;23441;50.856;6.076;2023-06-10T15:52:23;32.20;63.50